createdAt,value
2023-11-11T00:02:25.003Z,76.80
2023-11-11T00:04:52.257Z,76.90
2023-11-11T00:07:19.448Z,77.20
2023-11-11T00:09:46.538Z,77.30
2023-11-11T00:12:14.079Z,77.30
2023-11-11T00:14:41.563Z,77.00
2023-11-11T00:17:08.826Z,77.00
2023-11-11T00:19:37.184Z,77.10
2023-11-11T00:22:06.025Z,77.30
2023-11-11T00:24:33.175Z,77.40
2023-11-11T00:27:00.550Z,77.40
2023-11-11T00:29:27.707Z,77.30
2023-11-11T00:31:54.832Z,77.90
2023-11-11T00:34:21.921Z,77.50
2023-11-11T00:36:52.965Z,78.10
2023-11-11T00:39:21.886Z,78.10
2023-11-11T00:41:49.511Z,78.00
2023-11-11T00:44:16.663Z,77.60
2023-11-11T00:46:43.864Z,78.00
2023-11-11T00:49:11.199Z,78.40
2023-11-11T00:51:40.862Z,77.90
2023-11-11T00:54:09.304Z,77.60
2023-11-11T00:56:40.514Z,77.40
2023-11-11T00:59:07.733Z,77.50
2023-11-11T01:01:35.719Z,77.50
2023-11-11T01:04:04.890Z,77.50
2023-11-11T01:06:32.538Z,77.50
2023-11-11T01:08:59.622Z,77.90
2023-11-11T01:11:26.874Z,78.10
2023-11-11T01:13:54.027Z,78.20
2023-11-11T01:16:22.052Z,78.40
2023-11-11T01:18:49.377Z,78.60
2023-11-11T01:21:16.663Z,78.20
2023-11-11T01:23:43.921Z,78.00
2023-11-11T01:26:11.362Z,77.70
2023-11-11T01:28:40.392Z,77.40
2023-11-11T01:31:08.030Z,77.90
2023-11-11T01:33:35.405Z,78.40
2023-11-11T01:36:05.427Z,78.10
2023-11-11T01:38:32.543Z,78.80
2023-11-11T01:40:59.862Z,78.70
2023-11-11T01:43:26.984Z,78.20
2023-11-11T01:45:56.803Z,78.10
2023-11-11T01:48:24.088Z,78.10
2023-11-11T01:50:51.643Z,78.20
2023-11-11T01:53:20.735Z,78.30
2023-11-11T01:55:49.560Z,78.10
2023-11-11T01:58:18.416Z,77.80
2023-11-11T02:00:46.945Z,77.50
2023-11-11T02:03:15.113Z,77.60
2023-11-11T02:05:43.857Z,77.70
2023-11-11T02:08:11.622Z,77.60
2023-11-11T02:10:39.553Z,77.50
2023-11-11T02:13:08.067Z,77.40
2023-11-11T02:15:36.638Z,77.50
2023-11-11T02:18:05.051Z,77.40
2023-11-11T02:20:34.394Z,77.40
2023-11-11T02:23:02.684Z,77.50
2023-11-11T02:25:30.856Z,77.40
2023-11-11T02:27:58.173Z,77.40
2023-11-11T02:30:25.609Z,77.40
2023-11-11T02:32:53.005Z,77.00
2023-11-11T02:35:20.101Z,77.00
2023-11-11T02:37:47.371Z,77.80
2023-11-11T02:40:15.100Z,78.60
2023-11-11T02:42:46.187Z,78.70
2023-11-11T02:45:13.522Z,79.00
2023-11-11T02:47:40.729Z,79.30
2023-11-11T02:50:08.277Z,79.60
2023-11-11T02:52:35.458Z,79.60
2023-11-11T02:55:02.617Z,79.80
2023-11-11T02:57:29.820Z,79.50
2023-11-11T02:59:57.360Z,79.40
2023-11-11T03:02:25.509Z,79.30
2023-11-11T03:04:52.765Z,79.50
2023-11-11T03:07:20.694Z,79.10
2023-11-11T03:09:47.831Z,78.90
2023-11-11T03:12:15.062Z,78.80
2023-11-11T03:14:42.168Z,78.90
2023-11-11T03:17:09.771Z,78.80
2023-11-11T03:19:37.502Z,78.60
2023-11-11T03:22:05.088Z,78.60
2023-11-11T03:24:32.892Z,78.30
2023-11-11T03:27:00.080Z,78.30
2023-11-11T03:29:27.191Z,77.50
2023-11-11T03:31:54.356Z,77.40
2023-11-11T03:34:21.473Z,77.10
2023-11-11T03:36:49.572Z,76.80
2023-11-11T03:39:17.988Z,76.60
2023-11-11T03:41:45.206Z,76.70
2023-11-11T03:44:12.377Z,77.20
2023-11-11T03:46:39.609Z,76.80
2023-11-11T03:49:06.898Z,76.60
2023-11-11T03:51:34.196Z,76.60
2023-11-11T03:54:01.345Z,77.20
2023-11-11T03:56:28.639Z,76.60
2023-11-11T03:58:55.742Z,76.60
2023-11-11T04:01:22.832Z,76.50
2023-11-11T04:03:50.043Z,76.50
2023-11-11T04:06:17.310Z,76.50
2023-11-11T04:08:44.580Z,76.40
2023-11-11T04:11:11.797Z,77.40
2023-11-11T04:13:40.722Z,78.10
2023-11-11T04:16:10.695Z,78.70
2023-11-11T04:18:38.769Z,79.90
2023-11-11T04:21:06.313Z,79.70
2023-11-11T04:23:33.494Z,80.00
2023-11-11T04:26:02.115Z,80.30
2023-11-11T04:28:29.288Z,80.50
2023-11-11T04:30:56.449Z,80.20
2023-11-11T04:33:23.941Z,80.80
2023-11-11T04:35:54.029Z,80.30
2023-11-11T04:38:27.651Z,80.30
2023-11-11T04:40:58.177Z,80.20
2023-11-11T04:43:25.347Z,80.10
2023-11-11T04:45:52.914Z,79.80
2023-11-11T04:48:20.873Z,79.60
2023-11-11T04:50:48.022Z,79.50
2023-11-11T04:53:15.127Z,79.50
2023-11-11T04:55:42.229Z,79.50
2023-11-11T04:58:09.290Z,79.40
2023-11-11T05:00:39.855Z,79.70
2023-11-11T05:03:07.076Z,80.50
2023-11-11T05:05:34.951Z,80.00
2023-11-11T05:08:03.376Z,79.80
2023-11-11T05:10:31.755Z,79.50
2023-11-11T05:12:58.878Z,79.30
2023-11-11T05:15:26.289Z,79.00
2023-11-11T05:17:53.471Z,78.90
2023-11-11T05:20:22.110Z,78.70
2023-11-11T05:22:49.412Z,78.70
2023-11-11T05:25:17.193Z,78.80
2023-11-11T05:27:47.288Z,78.90
2023-11-11T05:30:14.844Z,78.70
2023-11-11T05:32:42.073Z,78.50
2023-11-11T05:35:10.754Z,78.50
2023-11-11T05:37:41.601Z,78.50
2023-11-11T05:40:11.392Z,79.40
2023-11-11T05:42:38.572Z,80.00
2023-11-11T05:45:06.390Z,80.10
2023-11-11T05:47:33.531Z,80.20
2023-11-11T05:50:00.643Z,80.30
2023-11-11T05:52:27.695Z,80.30
2023-11-11T05:54:55.695Z,80.20
2023-11-11T05:57:22.813Z,80.20
2023-11-11T05:59:49.935Z,80.20
2023-11-11T06:02:17.021Z,79.90
2023-11-11T06:04:44.166Z,79.80
2023-11-11T06:07:11.277Z,79.70
2023-11-11T06:09:40.406Z,79.60
2023-11-11T06:12:08.062Z,79.60
2023-11-11T06:14:35.176Z,79.40
2023-11-11T06:17:02.296Z,79.30
2023-11-11T06:19:29.716Z,79.30
2023-11-11T06:21:57.060Z,79.40
2023-11-11T06:24:24.523Z,79.60
2023-11-11T06:26:51.693Z,79.80
2023-11-11T06:29:19.134Z,79.90
2023-11-11T06:31:46.661Z,80.40
2023-11-11T06:34:13.756Z,81.00
2023-11-11T06:36:40.864Z,81.20
2023-11-11T06:39:09.444Z,81.70
2023-11-11T06:41:36.575Z,81.70
2023-11-11T06:44:03.866Z,81.80
2023-11-11T06:46:30.988Z,81.50
2023-11-11T06:49:00.059Z,81.20
2023-11-11T06:51:28.853Z,81.50
2023-11-11T06:53:57.382Z,81.60
2023-11-11T06:56:24.462Z,81.70
2023-11-11T06:58:51.928Z,81.70
2023-11-11T07:01:24.558Z,81.70
2023-11-11T07:03:51.799Z,82.00
2023-11-11T07:06:23.946Z,81.50
2023-11-11T07:08:52.160Z,81.20
2023-11-11T07:11:20.098Z,81.10
2023-11-11T07:13:47.753Z,81.00
2023-11-11T07:16:18.173Z,80.90
2023-11-11T07:18:46.048Z,80.70
2023-11-11T07:21:25.347Z,80.50
2023-11-11T07:23:53.674Z,80.30
2023-11-11T07:26:21.205Z,80.10
2023-11-11T07:28:49.622Z,80.00
2023-11-11T07:31:19.019Z,79.80
2023-11-11T07:33:47.242Z,79.60
2023-11-11T07:36:14.468Z,79.30
2023-11-11T07:38:43.506Z,79.00
2023-11-11T07:41:11.501Z,78.90
2023-11-11T07:43:39.832Z,79.10
2023-11-11T07:46:07.214Z,79.40
2023-11-11T07:48:35.056Z,79.60
2023-11-11T07:51:03.279Z,79.60
2023-11-11T07:53:30.530Z,79.60
2023-11-11T07:55:59.992Z,79.70
2023-11-11T08:00:57.906Z,79.90
2023-11-11T08:03:29.005Z,80.40
2023-11-11T08:05:56.129Z,80.50
2023-11-11T08:08:24.511Z,80.60
2023-11-11T08:10:51.950Z,80.70
2023-11-11T08:13:19.712Z,80.90
2023-11-11T08:15:46.866Z,80.90
2023-11-11T08:18:14.119Z,80.90
2023-11-11T08:20:42.963Z,81.00
2023-11-11T08:23:11.389Z,80.90
2023-11-11T08:25:38.948Z,81.00
2023-11-11T08:28:06.798Z,81.00
2023-11-11T08:30:34.613Z,81.00
2023-11-11T08:33:04.027Z,81.30
2023-11-11T08:35:31.362Z,81.00
2023-11-11T08:38:01.053Z,80.90
2023-11-11T08:40:29.015Z,80.70
2023-11-11T08:42:56.213Z,80.50
2023-11-11T08:45:23.385Z,80.40
2023-11-11T08:47:50.815Z,80.30
2023-11-11T08:50:18.018Z,80.00
2023-11-11T08:52:45.754Z,80.10
2023-11-11T08:55:13.444Z,80.30
2023-11-11T08:57:41.126Z,80.00
2023-11-11T09:00:10.645Z,79.90
2023-11-11T09:02:37.961Z,79.90
2023-11-11T09:05:06.918Z,80.10
2023-11-11T09:07:37.384Z,79.90
2023-11-11T09:10:05.567Z,79.80
2023-11-11T09:12:33.917Z,79.80
2023-11-11T09:15:01.479Z,79.40
2023-11-11T09:17:28.617Z,79.10
2023-11-11T09:19:55.742Z,73.50
2023-11-11T09:22:22.946Z,64.70
2023-11-11T09:24:50.180Z,70.20
2023-11-11T09:27:17.481Z,71.00
2023-11-11T09:29:44.985Z,71.30
2023-11-11T09:32:12.846Z,72.50
2023-11-11T09:34:46.880Z,71.20
2023-11-11T09:37:14.132Z,71.30
2023-11-11T09:39:41.257Z,71.70
2023-11-11T09:42:11.765Z,73.10
2023-11-11T09:47:15.066Z,73.70
2023-11-11T09:49:43.242Z,73.20
2023-11-11T09:52:13.877Z,68.80
2023-11-11T09:54:44.209Z,69.20
2023-11-11T09:57:12.257Z,66.80
2023-11-11T09:59:41.863Z,65.50
2023-11-11T10:02:12.750Z,67.40
2023-11-11T10:04:40.913Z,69.10
2023-11-11T10:07:08.635Z,67.30
2023-11-11T10:09:36.263Z,66.50
2023-11-11T10:12:03.679Z,65.50
2023-11-11T10:14:33.488Z,61.40
2023-11-11T10:17:04.568Z,60.80
2023-11-11T10:19:32.565Z,63.10
2023-11-11T10:22:00.508Z,63.90
2023-11-11T10:24:27.812Z,64.60
2023-11-11T10:26:55.067Z,65.20
2023-11-11T10:29:22.264Z,64.70
2023-11-11T10:31:50.282Z,66.00
2023-11-11T10:34:17.435Z,67.50
2023-11-11T10:36:46.251Z,68.30
2023-11-11T10:39:14.051Z,68.60
2023-11-11T10:41:41.977Z,69.00
2023-11-11T10:44:10.065Z,69.90
2023-11-11T10:46:40.442Z,70.60
2023-11-11T10:49:10.547Z,71.00
2023-11-11T10:51:41.730Z,71.80
2023-11-11T10:54:12.482Z,72.40
2023-11-11T10:56:41.236Z,73.00
2023-11-11T10:59:08.416Z,73.40
2023-11-11T11:01:36.374Z,73.90
2023-11-11T11:04:05.707Z,74.60
2023-11-11T11:06:50.895Z,75.10
2023-11-11T11:09:23.029Z,75.60
2023-11-11T11:12:07.020Z,75.80
2023-11-11T11:14:48.367Z,76.30
2023-11-11T11:17:16.451Z,76.70
2023-11-11T11:20:10.219Z,77.10
2023-11-11T11:22:41.046Z,77.00
2023-11-11T11:25:37.960Z,77.30
2023-11-11T11:28:11.132Z,77.30
2023-11-11T11:30:43.495Z,77.40
2023-11-11T11:33:19.064Z,77.30
2023-11-11T11:35:51.586Z,77.40
2023-11-11T11:38:25.760Z,77.40
2023-11-11T11:40:56.625Z,77.30
2023-11-11T11:43:30.466Z,77.20
2023-11-11T11:46:01.958Z,77.30
2023-11-11T11:48:32.113Z,77.00
2023-11-11T11:51:19.960Z,77.00
2023-11-11T11:53:55.541Z,77.10
2023-11-11T11:56:31.039Z,77.10
2023-11-11T11:59:01.840Z,77.20
2023-11-11T12:01:38.684Z,77.30
2023-11-11T12:04:06.613Z,77.30
2023-11-11T12:06:40.488Z,77.30
2023-11-11T12:09:13.477Z,77.50
2023-11-11T12:11:40.576Z,77.80
2023-11-11T12:14:10.007Z,78.00
2023-11-11T12:16:44.687Z,78.00
2023-11-11T12:19:13.799Z,78.20
2023-11-11T12:21:52.212Z,78.50
2023-11-11T12:24:26.558Z,78.60
2023-11-11T12:27:03.065Z,78.70
2023-11-11T12:29:38.398Z,78.80
2023-11-11T12:32:05.984Z,78.90
2023-11-11T12:34:34.415Z,79.10
2023-11-11T12:37:01.776Z,79.10
2023-11-11T12:39:30.762Z,79.30
2023-11-11T12:41:59.136Z,79.00
2023-11-11T12:44:27.243Z,78.70
2023-11-11T12:46:57.380Z,78.40
2023-11-11T12:49:29.338Z,77.90
2023-11-11T12:51:59.898Z,77.50
2023-11-11T12:54:32.831Z,77.40
2023-11-11T12:57:00.459Z,77.10
2023-11-11T12:59:28.039Z,76.80
2023-11-11T13:02:02.349Z,76.40
2023-11-11T13:04:31.345Z,75.60
2023-11-11T13:07:01.662Z,75.80
2023-11-11T13:09:42.926Z,76.30
2023-11-11T13:12:10.795Z,76.90
2023-11-11T13:14:37.903Z,77.00
2023-11-11T13:17:05.523Z,77.30
2023-11-11T13:19:35.653Z,77.90
2023-11-11T13:22:06.080Z,78.60
2023-11-11T13:24:33.787Z,78.90
2023-11-11T13:27:01.171Z,79.40
2023-11-11T13:29:28.579Z,80.00
2023-11-11T13:31:56.454Z,80.00
2023-11-11T13:34:24.526Z,80.90
2023-11-11T13:36:52.468Z,80.60
2023-11-11T13:39:38.640Z,80.60
2023-11-11T13:42:11.136Z,80.80
2023-11-11T13:44:39.238Z,80.80
2023-11-11T13:47:06.543Z,80.80
2023-11-11T13:49:33.821Z,81.00
2023-11-11T13:52:01.621Z,81.00
2023-11-11T13:54:28.862Z,80.90
2023-11-11T13:56:58.072Z,80.80
2023-11-11T13:59:25.425Z,80.70
2023-11-11T14:01:53.241Z,80.30
2023-11-11T14:04:21.489Z,80.40
2023-11-11T14:06:48.748Z,80.20
2023-11-11T14:09:17.383Z,80.10
2023-11-11T14:11:45.389Z,80.10
2023-11-11T14:14:12.577Z,79.80
2023-11-11T14:16:39.912Z,79.70
2023-11-11T14:19:13.132Z,79.60
2023-11-11T14:21:40.361Z,79.60
2023-11-11T14:24:08.508Z,79.50
2023-11-11T14:26:35.942Z,79.30
2023-11-11T14:29:03.214Z,79.10
2023-11-11T14:31:33.421Z,78.90
2023-11-11T14:34:07.071Z,79.30
2023-11-11T14:36:37.534Z,78.70
2023-11-11T14:39:05.408Z,78.50
2023-11-11T14:41:32.854Z,78.40
2023-11-11T14:44:01.080Z,78.00
2023-11-11T14:46:31.466Z,77.90
2023-11-11T14:48:58.989Z,77.60
2023-11-11T14:51:26.776Z,77.50
2023-11-11T14:53:53.876Z,77.30
2023-11-11T14:56:20.971Z,77.10
2023-11-11T14:58:48.105Z,76.80
2023-11-11T15:01:15.335Z,76.70
2023-11-11T15:03:42.711Z,76.60
2023-11-11T15:06:11.227Z,76.40
2023-11-11T15:08:38.385Z,76.30
2023-11-11T15:11:06.020Z,76.50
2023-11-11T15:13:36.033Z,76.00
2023-11-11T15:16:04.437Z,75.80
2023-11-11T15:18:31.558Z,75.80
2023-11-11T15:20:59.257Z,75.80
2023-11-11T15:23:26.645Z,75.70
2023-11-11T15:25:58.129Z,75.90
2023-11-11T15:28:25.434Z,76.30
2023-11-11T15:30:53.280Z,75.70
2023-11-11T15:33:20.533Z,75.00
2023-11-11T15:35:47.821Z,75.20
2023-11-11T15:38:17.355Z,75.30
2023-11-11T15:40:46.614Z,75.40
2023-11-11T15:43:13.715Z,75.30
2023-11-11T15:45:40.822Z,75.40
2023-11-11T15:48:07.934Z,75.30
2023-11-11T15:50:36.397Z,75.30
2023-11-11T15:53:05.481Z,75.30
2023-11-11T15:55:33.148Z,75.30
2023-11-11T15:58:00.222Z,75.10
2023-11-11T16:00:29.048Z,75.00
2023-11-11T16:02:56.290Z,76.40
2023-11-11T16:05:23.461Z,79.10
2023-11-11T16:07:50.560Z,81.90
2023-11-11T16:10:17.656Z,83.30
2023-11-11T16:12:44.713Z,83.60
2023-11-11T16:15:12.166Z,84.20
2023-11-11T16:17:39.595Z,85.00
2023-11-11T16:20:13.271Z,84.30
2023-11-11T16:22:40.380Z,84.30
2023-11-11T16:25:11.531Z,84.50
2023-11-11T16:27:38.631Z,84.70
2023-11-11T16:30:08.300Z,84.80
2023-11-11T16:32:36.454Z,84.90
2023-11-11T16:35:07.447Z,85.20
2023-11-11T16:37:36.167Z,85.20
2023-11-11T16:40:10.886Z,85.20
2023-11-11T16:42:38.539Z,85.20
2023-11-11T16:45:09.542Z,85.20
2023-11-11T16:47:37.186Z,85.40
2023-11-11T16:50:05.432Z,85.60
2023-11-11T16:52:32.588Z,85.70
2023-11-11T16:54:59.758Z,85.60
2023-11-11T16:57:27.556Z,85.50
2023-11-11T16:59:55.717Z,85.90
2023-11-11T17:02:22.994Z,86.60
2023-11-11T17:04:50.314Z,86.40
2023-11-11T17:07:24.798Z,86.40
2023-11-11T17:09:55.671Z,86.30
2023-11-11T17:12:24.573Z,86.10
2023-11-11T17:14:51.649Z,85.90
2023-11-11T17:17:18.976Z,85.60
2023-11-11T17:19:49.085Z,85.40
2023-11-11T17:22:16.231Z,85.10
2023-11-11T17:24:43.624Z,84.80
2023-11-11T17:27:10.738Z,84.20
2023-11-11T17:29:37.840Z,83.30
2023-11-11T17:32:06.608Z,83.00
2023-11-11T17:34:33.998Z,83.00
2023-11-11T17:37:01.405Z,83.10
2023-11-11T17:39:28.512Z,83.00
2023-11-11T17:41:56.446Z,82.90
2023-11-11T17:44:24.714Z,82.70
2023-11-11T17:46:52.515Z,82.60
2023-11-11T17:49:19.687Z,82.50
2023-11-11T17:51:46.775Z,82.40
2023-11-11T17:54:14.200Z,82.40
2023-11-11T17:56:42.166Z,82.40
2023-11-11T17:59:10.114Z,82.20
2023-11-11T18:01:38.993Z,82.10
2023-11-11T18:04:07.396Z,82.00
2023-11-11T18:06:42.641Z,81.90
2023-11-11T18:09:13.114Z,81.70
2023-11-11T18:11:42.082Z,81.10
2023-11-11T18:14:09.289Z,81.00
2023-11-11T18:16:37.916Z,80.80
2023-11-11T18:19:09.548Z,80.70
2023-11-11T18:21:37.718Z,79.60
2023-11-11T18:24:05.299Z,79.80
2023-11-11T18:26:32.524Z,79.40
2023-11-11T18:28:59.708Z,79.30
2023-11-11T18:31:26.830Z,79.40
2023-11-11T18:33:53.991Z,79.20
2023-11-11T18:36:21.163Z,79.90
2023-11-11T18:38:48.289Z,79.40
2023-11-11T18:41:15.388Z,79.40
2023-11-11T18:43:42.472Z,79.60
2023-11-11T18:46:16.113Z,80.00
2023-11-11T18:48:43.311Z,80.40
2023-11-11T18:51:11.310Z,80.90
2023-11-11T18:53:38.784Z,81.70
2023-11-11T18:56:06.883Z,81.20
2023-11-11T18:58:34.113Z,81.40
2023-11-11T19:01:02.367Z,81.80
2023-11-11T19:03:29.465Z,81.70
2023-11-11T19:05:57.666Z,81.90
2023-11-11T19:08:24.761Z,82.20
2023-11-11T19:10:51.845Z,82.40
2023-11-11T19:13:19.491Z,82.70
2023-11-11T19:15:46.556Z,82.80
2023-11-11T19:18:13.858Z,83.10
2023-11-11T19:20:41.790Z,82.90
2023-11-11T19:23:09.258Z,82.90
2023-11-11T19:25:36.522Z,82.90
2023-11-11T19:28:04.836Z,82.90
2023-11-11T19:30:32.424Z,82.80
2023-11-11T19:32:59.516Z,82.80
2023-11-11T19:35:27.185Z,82.90
2023-11-11T19:37:55.178Z,83.60
2023-11-11T19:40:22.404Z,83.10
2023-11-11T19:42:49.514Z,83.10
2023-11-11T19:45:16.883Z,83.10
2023-11-11T19:47:44.378Z,83.20
2023-11-11T19:50:13.887Z,83.10
2023-11-11T19:52:41.671Z,83.00
2023-11-11T19:55:09.410Z,82.70
2023-11-11T19:57:43.287Z,82.80
2023-11-11T20:00:13.585Z,82.70
2023-11-11T20:02:41.700Z,82.40
2023-11-11T20:05:09.249Z,82.50
2023-11-11T20:07:36.873Z,82.70
2023-11-11T20:10:05.441Z,83.00
2023-11-11T20:12:32.985Z,83.00
2023-11-11T20:15:06.496Z,83.00
2023-11-11T20:17:34.258Z,83.00
2023-11-11T20:20:01.454Z,82.90
2023-11-11T20:22:28.530Z,82.60
2023-11-11T20:24:55.640Z,82.20
2023-11-11T20:27:23.137Z,82.40
2023-11-11T20:29:52.394Z,82.50
2023-11-11T20:32:19.831Z,82.30
2023-11-11T20:34:47.007Z,82.20
2023-11-11T20:37:14.279Z,82.00
2023-11-11T20:39:41.500Z,81.90
2023-11-11T20:42:08.593Z,81.80
2023-11-11T20:44:35.860Z,81.50
2023-11-11T20:47:03.090Z,81.50
2023-11-11T20:49:30.184Z,81.40
2023-11-11T20:51:57.592Z,81.70
2023-11-11T20:54:24.678Z,81.50
2023-11-11T20:56:51.784Z,81.40
2023-11-11T20:59:18.905Z,81.20
2023-11-11T21:01:46.144Z,81.10
2023-11-11T21:04:14.425Z,81.10
2023-11-11T21:06:41.627Z,80.80
2023-11-11T21:09:11.824Z,80.50
2023-11-11T21:11:39.081Z,80.30
2023-11-11T21:14:06.200Z,80.10
2023-11-11T21:16:33.318Z,80.00
2023-11-11T21:19:00.427Z,79.90
2023-11-11T21:21:27.470Z,79.90
2023-11-11T21:23:54.564Z,79.80
2023-11-11T21:26:22.213Z,79.90
2023-11-11T21:28:49.356Z,80.00
2023-11-11T21:31:16.530Z,79.80
2023-11-11T21:33:43.681Z,79.90
2023-11-11T21:36:10.862Z,79.80
2023-11-11T21:38:38.903Z,79.70
2023-11-11T21:41:07.026Z,79.70
2023-11-11T21:43:35.470Z,79.70
2023-11-11T21:46:03.704Z,80.30
2023-11-11T21:48:30.843Z,81.00
2023-11-11T21:50:57.960Z,81.30
2023-11-11T21:53:25.046Z,81.60
2023-11-11T21:55:52.107Z,81.90
2023-11-11T21:58:19.195Z,81.90
2023-11-11T22:00:46.292Z,82.20
2023-11-11T22:03:13.479Z,82.20
2023-11-11T22:05:41.540Z,82.40
2023-11-11T22:08:09.331Z,82.60
2023-11-11T22:10:36.904Z,82.70
2023-11-11T22:13:04.111Z,82.70
2023-11-11T22:15:31.189Z,82.70
2023-11-11T22:17:58.443Z,82.70
2023-11-11T22:20:25.594Z,82.60
2023-11-11T22:22:53.511Z,82.60
2023-11-11T22:25:20.820Z,82.80
2023-11-11T22:27:48.153Z,82.80
2023-11-11T22:30:15.459Z,82.60
2023-11-11T22:32:42.811Z,82.40
2023-11-11T22:35:14.262Z,82.20
2023-11-11T22:37:41.433Z,82.10
2023-11-11T22:40:14.653Z,81.90
2023-11-11T22:42:44.017Z,81.90
2023-11-11T22:45:14.559Z,82.00
2023-11-11T22:47:43.981Z,82.40
2023-11-11T22:50:11.641Z,81.50
2023-11-11T22:52:38.870Z,81.20
2023-11-11T22:55:07.679Z,80.90
2023-11-11T22:57:34.813Z,80.80
2023-11-11T23:00:01.898Z,80.60
2023-11-11T23:02:30.092Z,80.50
2023-11-11T23:04:59.014Z,80.40
2023-11-11T23:07:26.693Z,80.60
2023-11-11T23:09:56.441Z,80.90
2023-11-11T23:12:24.923Z,80.80
2023-11-11T23:14:52.224Z,82.20
2023-11-11T23:17:19.490Z,82.90
2023-11-11T23:19:46.635Z,82.90
2023-11-11T23:22:14.138Z,82.70
2023-11-11T23:24:41.221Z,82.70
2023-11-11T23:27:11.278Z,82.60
2023-11-11T23:29:40.369Z,82.60
2023-11-11T23:32:08.106Z,82.80
2023-11-11T23:34:35.767Z,83.20
2023-11-11T23:37:02.916Z,82.80
2023-11-11T23:39:29.985Z,82.90
2023-11-11T23:41:57.102Z,83.10
2023-11-11T23:44:24.205Z,83.10
2023-11-11T23:46:51.339Z,83.00
2023-11-11T23:49:18.452Z,83.00
2023-11-11T23:51:49.873Z,83.10
2023-11-11T23:54:18.931Z,83.20
2023-11-11T23:56:46.006Z,83.10
2023-11-11T23:59:13.177Z,82.90
